createdAt,value
2018-12-09T00:01:09.140Z,7.30
2018-12-09T00:03:36.749Z,7.30
2018-12-09T00:06:04.390Z,7.30
2018-12-09T00:08:32.036Z,7.20
2018-12-09T00:10:59.576Z,7.20
2018-12-09T00:13:27.120Z,7.20
2018-12-09T00:15:54.687Z,7.20
2018-12-09T00:18:22.276Z,7.20
2018-12-09T00:20:49.878Z,7.20
2018-12-09T00:23:17.424Z,7.20
2018-12-09T00:25:44.988Z,7.20
2018-12-09T00:28:12.576Z,7.30
2018-12-09T00:30:40.181Z,7.20
2018-12-09T00:33:07.769Z,7.20
2018-12-09T00:35:35.336Z,7.20
2018-12-09T00:38:02.879Z,7.20
2018-12-09T00:40:30.439Z,7.20
2018-12-09T00:42:57.984Z,7.20
2018-12-09T00:45:25.588Z,7.20
2018-12-09T00:47:53.128Z,7.20
2018-12-09T00:50:20.687Z,7.20
2018-12-09T00:52:48.227Z,7.20
2018-12-09T00:55:15.832Z,7.20
2018-12-09T00:57:43.421Z,7.20
2018-12-09T01:00:11.621Z,7.20
2018-12-09T01:02:39.261Z,7.30
2018-12-09T01:05:07.007Z,7.30
2018-12-09T01:07:34.553Z,7.30
2018-12-09T01:10:02.299Z,7.30
2018-12-09T01:12:29.891Z,7.40
2018-12-09T01:14:57.456Z,7.40
2018-12-09T01:17:25.037Z,7.40
2018-12-09T01:19:52.594Z,7.40
2018-12-09T01:22:20.179Z,7.40
2018-12-09T01:24:47.788Z,7.30
2018-12-09T01:27:15.336Z,7.30
2018-12-09T01:29:42.903Z,7.30
2018-12-09T01:32:10.487Z,7.30
2018-12-09T01:34:38.052Z,7.30
2018-12-09T01:37:05.643Z,7.30
2018-12-09T01:39:33.259Z,7.30
2018-12-09T01:42:01.228Z,7.30
2018-12-09T01:44:28.847Z,7.30
2018-12-09T01:46:56.408Z,7.20
2018-12-09T01:49:23.976Z,7.20
2018-12-09T01:51:51.523Z,7.20
2018-12-09T01:54:19.857Z,7.20
2018-12-09T01:56:47.506Z,7.20
2018-12-09T01:59:15.059Z,7.20
2018-12-09T02:01:42.669Z,7.20
2018-12-09T02:04:10.312Z,7.20
2018-12-09T02:06:38.245Z,7.20
2018-12-09T02:09:06.681Z,7.30
2018-12-09T02:11:34.328Z,7.30
2018-12-09T02:14:01.925Z,7.40
2018-12-09T02:16:29.491Z,7.40
2018-12-09T02:19:05.775Z,7.50
2018-12-09T02:21:33.427Z,7.50
2018-12-09T02:24:00.976Z,7.50
2018-12-09T02:26:28.543Z,7.50
2018-12-09T02:28:56.085Z,7.50
2018-12-09T02:31:23.651Z,7.50
2018-12-09T02:33:51.203Z,7.60
2018-12-09T02:36:18.775Z,7.60
2018-12-09T02:38:46.443Z,7.60
2018-12-09T02:41:14.010Z,7.60
2018-12-09T02:43:41.562Z,7.60
2018-12-09T02:46:09.132Z,7.60
2018-12-09T02:48:36.676Z,7.60
2018-12-09T02:51:04.759Z,7.60
2018-12-09T02:53:32.597Z,7.60
2018-12-09T02:56:00.217Z,7.60
2018-12-09T02:58:27.764Z,7.60
2018-12-09T03:00:55.340Z,7.60
2018-12-09T03:03:22.888Z,7.60
2018-12-09T03:05:50.459Z,7.60
2018-12-09T03:08:18.005Z,7.60
2018-12-09T03:10:45.573Z,7.60
2018-12-09T03:13:13.133Z,7.60
2018-12-09T03:15:40.740Z,7.50
2018-12-09T03:18:08.292Z,7.50
2018-12-09T03:20:35.851Z,7.50
2018-12-09T03:23:03.436Z,7.50
2018-12-09T03:25:31.008Z,7.50
2018-12-09T03:27:58.645Z,7.60
2018-12-09T03:30:26.222Z,7.50
2018-12-09T03:32:53.785Z,7.60
2018-12-09T03:35:21.404Z,7.50
2018-12-09T03:37:48.952Z,7.60
2018-12-09T03:40:16.566Z,7.60
2018-12-09T03:42:44.119Z,7.60
2018-12-09T03:45:11.687Z,7.60
2018-12-09T03:47:39.242Z,7.60
2018-12-09T03:50:07.355Z,7.60
2018-12-09T03:52:34.969Z,7.60
2018-12-09T03:55:02.556Z,7.60
2018-12-09T03:57:30.124Z,7.60
2018-12-09T03:59:57.667Z,7.60
2018-12-09T04:02:25.223Z,7.60
2018-12-09T04:04:52.771Z,7.60
2018-12-09T04:07:20.340Z,7.60
2018-12-09T04:09:47.891Z,7.60
2018-12-09T04:12:15.466Z,7.60
2018-12-09T04:14:43.020Z,7.60
2018-12-09T04:17:10.589Z,7.50
2018-12-09T04:19:38.136Z,7.50
2018-12-09T04:22:05.704Z,7.50
2018-12-09T04:24:33.299Z,7.50
2018-12-09T04:27:00.863Z,7.50
2018-12-09T04:29:28.417Z,7.50
2018-12-09T04:31:55.992Z,7.50
2018-12-09T04:34:23.545Z,7.50
2018-12-09T04:36:51.123Z,7.40
2018-12-09T04:39:18.670Z,7.40
2018-12-09T04:41:46.239Z,7.40
2018-12-09T04:44:13.795Z,7.40
2018-12-09T04:46:41.377Z,7.30
2018-12-09T04:49:08.958Z,7.30
2018-12-09T04:51:48.243Z,7.30
2018-12-09T04:54:15.798Z,7.30
2018-12-09T04:56:43.379Z,7.30
2018-12-09T04:59:20.191Z,7.30
2018-12-09T05:01:47.787Z,7.20
2018-12-09T05:04:15.416Z,7.20
2018-12-09T05:06:43.387Z,7.20
2018-12-09T05:09:10.944Z,7.20
2018-12-09T05:11:38.516Z,7.20
2018-12-09T05:14:06.196Z,7.20
2018-12-09T05:16:33.821Z,7.10
2018-12-09T05:19:01.410Z,7.20
2018-12-09T05:21:29.015Z,7.10
2018-12-09T05:23:56.574Z,7.10
2018-12-09T05:26:24.547Z,7.10
2018-12-09T05:28:52.097Z,7.10
2018-12-09T05:31:19.741Z,7.10
2018-12-09T05:33:47.378Z,7.10
2018-12-09T05:36:15.006Z,7.10
2018-12-09T05:38:42.971Z,7.00
2018-12-09T05:41:10.593Z,7.00
2018-12-09T05:43:38.290Z,7.00
2018-12-09T05:46:05.958Z,7.00
2018-12-09T05:48:33.496Z,7.00
2018-12-09T05:51:01.603Z,7.00
2018-12-09T05:53:29.168Z,7.00
2018-12-09T05:55:56.712Z,7.00
2018-12-09T05:58:26.225Z,7.00
2018-12-09T06:00:53.776Z,7.00
2018-12-09T06:03:21.908Z,7.10
2018-12-09T06:05:49.507Z,7.00
2018-12-09T06:08:17.116Z,7.10
2018-12-09T06:10:44.710Z,7.10
2018-12-09T06:13:12.434Z,7.10
2018-12-09T06:15:40.388Z,7.10
2018-12-09T06:18:07.949Z,7.10
2018-12-09T06:20:35.549Z,7.10
2018-12-09T06:23:03.115Z,7.10
2018-12-09T06:25:30.664Z,7.10
2018-12-09T06:27:58.653Z,7.10
2018-12-09T06:30:26.257Z,7.10
2018-12-09T06:32:53.909Z,7.10
2018-12-09T06:35:21.564Z,7.20
2018-12-09T06:37:49.183Z,7.20
2018-12-09T06:40:16.774Z,7.20
2018-12-09T06:42:44.326Z,7.20
2018-12-09T06:45:11.963Z,7.20
2018-12-09T06:47:39.529Z,7.20
2018-12-09T06:50:07.163Z,7.20
2018-12-09T06:52:34.735Z,7.30
2018-12-09T06:55:02.305Z,7.30
2018-12-09T06:57:29.879Z,7.30
2018-12-09T06:59:57.413Z,7.30
2018-12-09T07:02:24.984Z,7.30
2018-12-09T07:04:52.582Z,7.40
2018-12-09T07:07:20.517Z,7.40
2018-12-09T07:09:48.126Z,7.40
2018-12-09T07:12:15.705Z,7.50
2018-12-09T07:14:43.252Z,7.50
2018-12-09T07:17:10.823Z,7.50
2018-12-09T07:19:38.412Z,7.50
2018-12-09T07:22:05.971Z,7.50
2018-12-09T07:24:33.556Z,7.50
2018-12-09T07:27:01.175Z,7.50
2018-12-09T07:29:28.776Z,7.40
2018-12-09T07:31:56.340Z,7.40
2018-12-09T07:34:23.888Z,7.40
2018-12-09T07:36:51.435Z,7.40
2018-12-09T07:39:19.044Z,7.40
2018-12-09T07:41:46.597Z,7.30
2018-12-09T07:44:14.170Z,7.30
2018-12-09T07:46:42.327Z,7.30
2018-12-09T07:49:09.891Z,7.30
2018-12-09T07:51:37.560Z,7.30
2018-12-09T07:54:05.114Z,7.30
2018-12-09T07:56:32.660Z,7.30
2018-12-09T07:59:00.224Z,7.30
2018-12-09T08:01:27.852Z,7.20
2018-12-09T08:03:55.411Z,7.20
2018-12-09T08:06:22.993Z,7.20
2018-12-09T08:08:50.558Z,7.20
2018-12-09T08:11:18.095Z,7.20
2018-12-09T08:13:45.667Z,7.20
2018-12-09T08:16:13.207Z,7.20
2018-12-09T08:18:40.767Z,7.20
2018-12-09T08:21:09.149Z,7.20
2018-12-09T08:23:37.003Z,7.20
2018-12-09T08:26:04.592Z,7.20
2018-12-09T08:28:32.151Z,7.20
2018-12-09T08:30:59.693Z,7.20
2018-12-09T08:33:27.299Z,7.20
2018-12-09T08:35:54.843Z,7.20
2018-12-09T08:38:22.413Z,7.30
2018-12-09T08:40:49.951Z,7.30
2018-12-09T08:43:17.520Z,7.30
2018-12-09T08:45:45.111Z,7.30
2018-12-09T08:48:12.720Z,7.30
2018-12-09T08:50:40.298Z,7.30
2018-12-09T08:53:07.905Z,7.30
2018-12-09T08:55:35.503Z,7.30
2018-12-09T08:58:03.104Z,7.30
2018-12-09T09:00:30.654Z,7.30
2018-12-09T09:02:58.216Z,7.20
2018-12-09T09:05:25.754Z,7.20
2018-12-09T09:07:53.340Z,7.20
2018-12-09T09:10:22.040Z,7.20
2018-12-09T09:12:49.752Z,7.20
2018-12-09T09:15:17.345Z,7.10
2018-12-09T09:17:44.951Z,7.10
2018-12-09T09:20:12.605Z,7.10
2018-12-09T09:22:40.164Z,7.10
2018-12-09T09:25:07.776Z,7.10
2018-12-09T09:27:35.315Z,7.10
2018-12-09T09:30:03.559Z,7.10
2018-12-09T09:32:31.104Z,7.10
2018-12-09T09:34:58.664Z,7.10
2018-12-09T09:37:26.253Z,7.10
2018-12-09T09:39:53.815Z,7.00
2018-12-09T09:42:21.357Z,7.00
2018-12-09T09:44:48.967Z,7.00
2018-12-09T09:47:16.733Z,7.00
2018-12-09T09:49:44.308Z,7.00
2018-12-09T09:52:11.851Z,6.90
2018-12-09T09:54:39.425Z,7.00
2018-12-09T09:57:06.963Z,6.90
2018-12-09T09:59:34.533Z,6.90
2018-12-09T10:02:02.075Z,6.90
2018-12-09T10:04:29.636Z,6.90
2018-12-09T10:06:57.184Z,6.90
2018-12-09T10:09:24.740Z,6.90
2018-12-09T10:11:52.275Z,6.90
2018-12-09T10:14:19.832Z,6.90
2018-12-09T10:16:47.372Z,6.90
2018-12-09T10:19:14.939Z,7.00
2018-12-09T10:21:42.629Z,7.00
2018-12-09T10:24:10.226Z,7.00
2018-12-09T10:26:37.780Z,7.00
2018-12-09T10:29:05.335Z,7.00
2018-12-09T10:31:32.873Z,7.00
2018-12-09T10:34:00.481Z,7.00
2018-12-09T10:36:28.018Z,7.00
2018-12-09T10:38:55.584Z,7.00
2018-12-09T10:41:23.125Z,7.00
2018-12-09T10:43:50.688Z,7.00
2018-12-09T10:46:18.224Z,7.00
2018-12-09T10:48:45.793Z,6.90
2018-12-09T10:51:13.329Z,6.90
2018-12-09T10:53:40.888Z,6.90
2018-12-09T10:56:08.427Z,6.90
2018-12-09T10:58:35.984Z,6.90
2018-12-09T11:01:08.389Z,6.80
2018-12-09T11:03:35.950Z,6.80
2018-12-09T11:06:03.531Z,6.80
2018-12-09T11:08:31.206Z,6.80
2018-12-09T11:10:58.796Z,6.80
2018-12-09T11:13:26.339Z,6.80
2018-12-09T11:15:53.905Z,6.80
2018-12-09T11:18:21.527Z,6.80
2018-12-09T11:20:49.093Z,6.80
2018-12-09T11:23:16.638Z,6.80
2018-12-09T11:25:44.211Z,6.90
2018-12-09T11:28:11.824Z,6.90
2018-12-09T11:30:39.388Z,6.90
2018-12-09T11:33:06.932Z,6.90
2018-12-09T11:35:34.573Z,6.90
2018-12-09T11:38:02.114Z,7.00
2018-12-09T11:40:29.672Z,7.00
2018-12-09T11:42:57.214Z,7.10
2018-12-09T11:45:24.816Z,7.20
2018-12-09T11:47:52.399Z,7.30
2018-12-09T11:50:19.961Z,7.30
2018-12-09T11:52:47.545Z,7.40
2018-12-09T11:55:15.152Z,7.40
2018-12-09T11:57:42.728Z,7.50
2018-12-09T12:00:12.259Z,7.60
2018-12-09T12:02:39.835Z,7.70
2018-12-09T12:05:07.770Z,7.80
2018-12-09T12:07:35.305Z,7.90
2018-12-09T12:10:03.112Z,8.00
2018-12-09T12:12:30.655Z,8.00
2018-12-09T12:14:58.216Z,8.10
2018-12-09T12:17:25.798Z,8.10
2018-12-09T12:19:53.358Z,8.10
2018-12-09T12:22:20.899Z,8.10
2018-12-09T12:24:48.459Z,8.10
2018-12-09T12:27:15.995Z,8.10
2018-12-09T12:29:43.560Z,8.10
2018-12-09T12:32:11.100Z,8.20
2018-12-09T12:34:38.661Z,8.20
2018-12-09T12:37:06.245Z,8.30
2018-12-09T12:39:33.807Z,8.30
2018-12-09T12:42:01.393Z,8.30
2018-12-09T12:44:29.040Z,8.30
2018-12-09T12:46:56.572Z,8.30
2018-12-09T12:49:24.576Z,8.20
2018-12-09T12:51:52.162Z,8.20
2018-12-09T12:54:19.707Z,8.10
2018-12-09T12:56:47.271Z,8.10
2018-12-09T12:59:14.857Z,8.10
2018-12-09T13:01:42.415Z,8.00
2018-12-09T13:04:09.996Z,8.00
2018-12-09T13:06:37.553Z,8.00
2018-12-09T13:09:06.171Z,8.00
2018-12-09T13:11:33.732Z,8.00
2018-12-09T13:14:01.267Z,8.00
2018-12-09T13:16:28.864Z,8.00
2018-12-09T13:18:56.461Z,8.00
2018-12-09T13:21:24.068Z,7.90
2018-12-09T13:23:51.611Z,7.90
2018-12-09T13:26:19.261Z,7.90
2018-12-09T13:28:46.843Z,7.90
2018-12-09T13:31:14.394Z,7.90
2018-12-09T13:33:41.976Z,7.90
2018-12-09T13:36:09.544Z,7.80
2018-12-09T13:38:37.923Z,7.90
2018-12-09T13:41:05.564Z,7.80
2018-12-09T13:43:33.103Z,7.80
2018-12-09T13:46:00.667Z,7.80
2018-12-09T13:48:28.217Z,7.80
2018-12-09T13:50:55.771Z,7.80
2018-12-09T13:53:23.352Z,7.80
2018-12-09T13:55:50.918Z,7.80
2018-12-09T13:58:18.508Z,7.80
2018-12-09T14:00:46.068Z,7.80
2018-12-09T14:03:13.656Z,7.80
2018-12-09T14:05:41.220Z,7.80
2018-12-09T14:08:09.027Z,7.70
2018-12-09T14:10:36.610Z,7.70
2018-12-09T14:13:04.183Z,7.70
2018-12-09T14:15:31.867Z,7.70
2018-12-09T14:17:59.410Z,7.70
2018-12-09T14:20:26.973Z,7.70
2018-12-09T14:22:54.512Z,7.70
2018-12-09T14:25:22.081Z,7.70
2018-12-09T14:27:49.626Z,7.70
2018-12-09T14:30:17.312Z,7.60
2018-12-09T14:32:44.857Z,7.60
2018-12-09T14:35:12.463Z,7.60
2018-12-09T14:37:40.003Z,7.60
2018-12-09T14:40:08.052Z,7.60
2018-12-09T14:42:35.655Z,7.60
2018-12-09T14:45:04.881Z,7.60
2018-12-09T14:47:32.435Z,7.60
2018-12-09T14:49:59.969Z,7.50
2018-12-09T14:52:27.532Z,7.50
2018-12-09T14:54:55.088Z,7.50
2018-12-09T14:57:22.657Z,7.50
2018-12-09T14:59:50.469Z,7.50
2018-12-09T15:02:18.031Z,7.50
2018-12-09T15:04:45.568Z,7.50
2018-12-09T15:07:13.124Z,7.50
2018-12-09T15:09:40.703Z,7.50
2018-12-09T15:12:09.621Z,7.50
2018-12-09T15:14:37.167Z,7.50
2018-12-09T15:17:04.776Z,7.50
2018-12-09T15:19:32.326Z,7.40
2018-12-09T15:21:59.959Z,7.40
2018-12-09T15:24:27.501Z,7.40
2018-12-09T15:26:55.055Z,7.30
2018-12-09T15:29:22.592Z,7.30
2018-12-09T15:31:50.143Z,7.30
2018-12-09T15:34:17.689Z,7.30
2018-12-09T15:36:45.290Z,7.20
2018-12-09T15:39:12.823Z,7.20
2018-12-09T15:41:40.425Z,7.20
2018-12-09T15:44:07.969Z,7.10
2018-12-09T15:46:35.519Z,7.10
2018-12-09T15:49:03.104Z,7.10
2018-12-09T15:51:30.667Z,7.10
2018-12-09T15:53:58.643Z,7.10
2018-12-09T15:56:26.199Z,7.00
2018-12-09T15:58:53.740Z,7.00
2018-12-09T16:01:21.345Z,7.00
2018-12-09T16:03:48.886Z,7.00
2018-12-09T16:06:16.443Z,7.00
2018-12-09T16:08:43.989Z,7.00
2018-12-09T16:11:11.554Z,7.00
2018-12-09T16:13:40.386Z,7.00
2018-12-09T16:16:08.734Z,7.00
2018-12-09T16:18:36.285Z,7.00
2018-12-09T16:21:03.883Z,7.00
2018-12-09T16:23:31.467Z,7.00
2018-12-09T16:25:59.064Z,7.00
2018-12-09T16:28:26.594Z,7.00
2018-12-09T16:30:54.175Z,7.00
2018-12-09T16:33:21.732Z,7.00
2018-12-09T16:35:49.281Z,7.00
2018-12-09T16:38:16.840Z,7.00
2018-12-09T16:40:44.393Z,7.00
2018-12-09T16:43:11.956Z,7.00
2018-12-09T16:45:39.536Z,7.00
2018-12-09T16:48:07.143Z,7.00
2018-12-09T16:50:34.692Z,7.00
2018-12-09T16:53:02.252Z,6.90
2018-12-09T16:55:29.790Z,6.90
2018-12-09T16:57:57.352Z,6.90
2018-12-09T17:00:24.893Z,6.80
2018-12-09T17:02:52.449Z,6.80
2018-12-09T17:05:19.990Z,6.70
2018-12-09T17:07:47.549Z,6.70
2018-12-09T17:10:21.060Z,6.60
2018-12-09T17:12:48.629Z,6.60
2018-12-09T17:15:16.177Z,6.60
2018-12-09T17:17:43.740Z,6.50
2018-12-09T17:20:11.288Z,6.50
2018-12-09T17:22:38.865Z,6.50
2018-12-09T17:25:06.499Z,6.50
2018-12-09T17:27:34.066Z,6.50
2018-12-09T17:30:01.620Z,6.50
2018-12-09T17:32:29.190Z,6.50
2018-12-09T17:34:56.736Z,6.50
2018-12-09T17:37:24.313Z,6.50
2018-12-09T17:39:51.863Z,6.50
2018-12-09T17:42:19.462Z,6.50
2018-12-09T17:44:47.004Z,6.50
2018-12-09T17:47:14.563Z,6.50
2018-12-09T17:49:42.109Z,6.50
2018-12-09T17:52:09.720Z,6.50
2018-12-09T17:54:37.259Z,6.50
2018-12-09T17:57:04.825Z,6.50
2018-12-09T17:59:32.415Z,6.50
2018-12-09T18:01:59.967Z,6.50
2018-12-09T18:04:27.521Z,6.40
2018-12-09T18:06:55.075Z,6.50
2018-12-09T18:09:22.617Z,6.40
2018-12-09T18:11:50.234Z,6.40
2018-12-09T18:14:17.775Z,6.40
2018-12-09T18:16:45.320Z,6.40
2018-12-09T18:19:12.884Z,6.40
2018-12-09T18:21:40.427Z,6.40
2018-12-09T18:24:08.035Z,6.40
2018-12-09T18:26:35.579Z,6.40
2018-12-09T18:29:03.232Z,6.40
2018-12-09T18:31:30.863Z,6.40
2018-12-09T18:33:58.514Z,6.40
2018-12-09T18:36:26.134Z,6.40
2018-12-09T18:38:53.793Z,6.50
2018-12-09T18:41:21.406Z,6.40
2018-12-09T18:43:48.968Z,6.50
2018-12-09T18:46:16.517Z,6.50
2018-12-09T18:48:44.077Z,6.40
2018-12-09T18:51:11.617Z,6.50
2018-12-09T18:53:39.177Z,6.40
2018-12-09T18:56:06.806Z,6.50
2018-12-09T18:58:34.374Z,6.50
2018-12-09T19:01:01.911Z,6.50
2018-12-09T19:03:29.475Z,6.50
2018-12-09T19:05:57.069Z,6.50
2018-12-09T19:08:24.725Z,6.50
2018-12-09T19:10:52.273Z,6.50
2018-12-09T19:13:19.827Z,6.40
2018-12-09T19:15:47.378Z,6.50
2018-12-09T19:18:14.942Z,6.40
2018-12-09T19:20:42.493Z,6.40
2018-12-09T19:23:10.056Z,6.40
2018-12-09T19:25:37.596Z,6.40
2018-12-09T19:28:05.160Z,6.40
2018-12-09T19:30:32.706Z,6.40
2018-12-09T19:33:00.272Z,6.40
2018-12-09T19:35:27.816Z,6.50
2018-12-09T19:37:55.433Z,6.50
2018-12-09T19:40:22.980Z,6.50
2018-12-09T19:42:50.539Z,6.50
2018-12-09T19:45:18.093Z,6.50
2018-12-09T19:47:45.661Z,6.50
2018-12-09T19:50:13.248Z,6.50
2018-12-09T19:52:40.809Z,6.50
2018-12-09T19:55:08.401Z,6.50
2018-12-09T19:57:35.956Z,6.50
2018-12-09T20:00:04.415Z,6.50
2018-12-09T20:02:31.960Z,6.50
2018-12-09T20:04:59.524Z,6.50
2018-12-09T20:07:27.068Z,6.50
2018-12-09T20:09:54.637Z,6.40
2018-12-09T20:12:22.180Z,6.40
2018-12-09T20:14:49.736Z,6.40
2018-12-09T20:17:17.281Z,6.40
2018-12-09T20:19:44.847Z,6.40
2018-12-09T20:22:12.386Z,6.40
2018-12-09T20:24:39.953Z,6.40
2018-12-09T20:27:07.500Z,6.40
2018-12-09T20:29:35.071Z,6.40
2018-12-09T20:32:02.662Z,6.40
2018-12-09T20:34:30.231Z,6.40
2018-12-09T20:36:57.835Z,6.40
2018-12-09T20:39:25.461Z,6.50
2018-12-09T20:41:53.004Z,6.50
2018-12-09T20:44:20.575Z,6.50
2018-12-09T20:46:48.124Z,6.50
2018-12-09T20:49:15.688Z,6.50
2018-12-09T20:51:43.239Z,6.50
2018-12-09T20:54:10.800Z,6.50
2018-12-09T20:56:38.382Z,6.50
2018-12-09T20:59:06.982Z,6.50
2018-12-09T21:01:34.527Z,6.40
2018-12-09T21:04:02.092Z,6.40
2018-12-09T21:06:29.632Z,6.40
2018-12-09T21:08:57.276Z,6.40
2018-12-09T21:11:24.816Z,6.40
2018-12-09T21:13:52.381Z,6.40
2018-12-09T21:16:19.928Z,6.40
2018-12-09T21:18:47.494Z,6.40
2018-12-09T21:21:15.085Z,6.40
2018-12-09T21:23:42.695Z,6.30
2018-12-09T21:26:10.286Z,6.30
2018-12-09T21:28:37.891Z,6.30
2018-12-09T21:31:05.525Z,6.30
2018-12-09T21:33:33.087Z,6.30
2018-12-09T21:36:00.644Z,6.30
2018-12-09T21:38:28.256Z,6.20
2018-12-09T21:40:55.795Z,6.30
2018-12-09T21:43:23.522Z,6.20
2018-12-09T21:45:51.206Z,6.20
2018-12-09T21:48:18.753Z,6.20
2018-12-09T21:50:46.321Z,6.20
2018-12-09T21:53:13.863Z,6.20
2018-12-09T21:55:41.432Z,6.20
2018-12-09T21:58:08.976Z,6.20
2018-12-09T22:00:36.548Z,6.20
2018-12-09T22:03:04.096Z,6.10
2018-12-09T22:05:31.662Z,6.10
2018-12-09T22:07:59.221Z,6.10
2018-12-09T22:10:26.789Z,6.10
2018-12-09T22:12:54.336Z,6.10
2018-12-09T22:15:21.901Z,6.00
2018-12-09T22:17:49.446Z,6.00
2018-12-09T22:20:17.012Z,6.00
2018-12-09T22:22:44.553Z,6.00
2018-12-09T22:25:12.162Z,6.00
2018-12-09T22:27:39.714Z,6.00
2018-12-09T22:30:07.367Z,6.00
2018-12-09T22:32:34.917Z,5.90
2018-12-09T22:35:02.486Z,5.90
2018-12-09T22:37:30.134Z,5.90
2018-12-09T22:39:57.727Z,5.90
2018-12-09T22:42:25.268Z,5.90
2018-12-09T22:44:52.832Z,5.90
2018-12-09T22:47:20.367Z,5.90
2018-12-09T22:49:47.977Z,5.90
2018-12-09T22:52:15.522Z,5.90
2018-12-09T22:54:43.132Z,5.90
2018-12-09T22:57:10.681Z,5.90
2018-12-09T22:59:38.245Z,5.90
2018-12-09T23:02:11.456Z,5.90
2018-12-09T23:04:39.060Z,6.00
2018-12-09T23:07:12.330Z,6.00
2018-12-09T23:09:39.944Z,6.00
2018-12-09T23:12:07.487Z,6.00
2018-12-09T23:14:35.052Z,6.00
2018-12-09T23:17:02.586Z,6.00
2018-12-09T23:19:30.189Z,6.00
2018-12-09T23:21:57.727Z,6.00
2018-12-09T23:24:25.295Z,6.00
2018-12-09T23:26:52.837Z,5.90
2018-12-09T23:29:20.400Z,5.90
2018-12-09T23:31:47.940Z,5.90
2018-12-09T23:34:15.492Z,5.90
2018-12-09T23:36:43.045Z,5.90
2018-12-09T23:39:10.580Z,5.80
2018-12-09T23:41:38.143Z,5.80
2018-12-09T23:44:05.680Z,5.80
2018-12-09T23:46:33.248Z,5.80
2018-12-09T23:49:00.793Z,5.70
2018-12-09T23:51:28.367Z,5.70
2018-12-09T23:53:55.912Z,5.70
2018-12-09T23:56:23.476Z,5.70
2018-12-09T23:58:51.015Z,5.60
